Arkansaw, Wisconsin
Current Conditions -  °F | °C
As of 6:55 PM on Saturday 22 Nov 2014 (Local Time) from KLUM Reporting Station
Haze Haze  
Wind Chill: 31°   Ceiling: 400
Heat Index: 36°   Visibility: 1mi
Dew Point: 35°   Wind: 6mph
Humidity: 97%   Direction: 110°ESE
Pressure: 29.68"   Gusts: NA
Location:  44.63°N, 92.03°W
Report Text: KLUM 230055Z AUTO 11005KT 1SM BR OVC004 02/02 A2968 RMK AO2 T00200015
Loading
Personal Weather Stations






























Interactive Weather Map New forecast layout! Learn more

10-Day Weather Forecast

Advertisements
Track Severe Weather on mobile